Time;durP1;ratioP1;P1;durP2;ratioP2;P2;SDS_P1;SDS_P2;PMS_P1;PMS_P2;Temp;Humidity;BMP_temperature;BMP_pressure;BME280_temperature;BME280_humidity;BME280_pressure;Samples;Min_cycle;Max_cycle;Signal;HPM_P1;HPM_P2
2023/07/16 00:00:50;;;;;;;1.30;1.17;;;23.30;99.90;;;;;;5040792;28;20197;-66
2023/07/16 00:03:15;;;;;;;1.65;1.00;;;23.30;99.90;;;;;;5038498;28;20177;-65
2023/07/16 00:05:44;;;;;;;3.45;1.13;;;23.20;99.80;;;;;;5040350;28;20169;-65
2023/07/16 00:08:09;;;;;;;1.77;0.90;;;23.20;99.80;;;;;;5036698;28;20442;-64
2023/07/16 00:10:38;;;;;;;2.47;1.15;;;23.20;99.80;;;;;;5039913;28;20185;-66
2023/07/16 00:13:06;;;;;;;2.30;1.10;;;23.10;99.80;;;;;;5039408;28;20173;-66
2023/07/16 00:15:32;;;;;;;1.70;1.10;;;23.10;99.90;;;;;;5040248;28;20201;-66
2023/07/16 00:17:58;;;;;;;2.15;1.10;;;23.00;99.80;;;;;;5057157;28;20228;-63
2023/07/16 00:20:29;;;;;;;1.88;1.30;;;23.00;99.90;;;;;;5032167;28;20216;-66
2023/07/16 00:22:54;;;;;;;2.85;1.13;;;22.90;99.80;;;;;;5034458;28;20190;-65
2023/07/16 00:25:20;;;;;;;1.67;1.10;;;22.90;99.90;;;;;;5039617;28;20169;-65
2023/07/16 00:27:46;;;;;;;1.83;1.52;;;22.80;99.90;;;;;;5025903;28;20277;-65
2023/07/16 00:30:12;;;;;;;2.47;1.20;;;22.80;99.90;;;;;;5026962;28;20204;-65
2023/07/16 00:32:40;;;;;;;2.55;1.35;;;22.80;99.90;;;;;;5039931;28;20185;-65
2023/07/16 00:35:06;;;;;;;3.20;1.30;;;22.70;99.90;;;;;;5040213;28;20178;-65
2023/07/16 00:37:35;;;;;;;2.63;1.10;;;22.70;99.90;;;;;;5048312;28;20260;-66
2023/07/16 00:40:04;;;;;;;1.85;1.00;;;22.70;99.90;;;;;;5045536;28;20185;-65
2023/07/16 00:42:29;;;;;;;1.77;1.08;;;22.60;99.90;;;;;;5027177;28;20181;-66
2023/07/16 00:44:55;;;;;;;2.88;1.20;;;22.60;99.90;;;;;;5035550;28;20177;-65
2023/07/16 00:47:22;;;;;;;2.47;1.05;;;22.60;99.90;;;;;;5040239;28;20169;-65
2023/07/16 00:49:48;;;;;;;1.52;0.95;;;22.50;99.90;;;;;;5038864;28;20209;-65
2023/07/16 00:52:18;;;;;;;2.88;1.10;;;22.50;99.90;;;;;;5039867;28;20195;-65
2023/07/16 00:54:46;;;;;;;2.13;1.00;;;22.50;99.90;;;;;;5039579;28;20166;-65
2023/07/16 00:57:12;;;;;;;3.05;1.05;;;22.40;99.90;;;;;;5040029;28;20266;-65
2023/07/16 00:59:37;;;;;;;2.35;1.30;;;22.50;99.90;;;;;;5039549;28;20189;-64
2023/07/16 01:02:05;;;;;;;1.50;1.08;;;22.40;99.90;;;;;;5048028;28;20339;-65
2023/07/16 01:04:33;;;;;;;1.40;1.00;;;22.40;99.90;;;;;;5038860;28;20225;-65
2023/07/16 01:07:04;;;;;;;1.52;1.00;;;22.40;99.90;;;;;;5055299;28;20266;-65
2023/07/16 01:09:32;;;;;;;4.80;1.20;;;22.30;99.90;;;;;;5035166;28;20217;-71
2023/07/16 01:12:05;;;;;;;2.90;1.20;;;22.30;99.90;;;;;;5034575;28;20189;-78
2023/07/16 01:14:34;;;;;;;1.30;0.90;;;22.30;99.90;;;;;;5038545;28;20177;-78
2023/07/16 01:17:06;;;;;;;2.00;1.05;;;22.20;99.90;;;;;;5039637;28;20238;-76
2023/07/16 01:19:33;;;;;;;2.65;1.10;;;22.20;99.90;;;;;;5038538;28;20201;-79
2023/07/16 01:22:16;;;;;;;1.15;0.90;;;22.20;99.90;;;;;;5039284;28;20193;-80
2023/07/16 01:24:53;;;;;;;2.20;1.30;;;22.20;99.90;;;;;;5039090;28;20222;-77
2023/07/16 01:27:53;;;;;;;1.55;1.10;;;22.20;99.90;;;;;;5038274;28;20189;-80
2023/07/16 01:30:22;;;;;;;2.20;1.10;;;22.10;99.90;;;;;;5037673;28;20212;-72
2023/07/16 01:32:49;;;;;;;4.07;1.05;;;22.00;99.90;;;;;;5038446;28;20188;-79
2023/07/16 01:35:18;;;;;;;2.10;0.95;;;22.10;99.90;;;;;;5038100;28;20185;-79
2023/07/16 01:37:46;;;;;;;2.00;1.00;;;22.00;99.90;;;;;;5038409;28;20177;-79
2023/07/16 01:40:14;;;;;;;3.28;1.20;;;22.00;99.90;;;;;;5038718;28;20296;-79
2023/07/16 01:42:40;;;;;;;3.20;1.20;;;22.00;99.90;;;;;;5038651;28;20220;-80
2023/07/16 01:45:08;;;;;;;1.67;1.10;;;21.90;99.90;;;;;;5038371;28;20201;-80
2023/07/16 01:47:55;;;;;;;1.73;1.10;;;21.90;99.90;;;;;;5028306;28;20201;-79
2023/07/16 01:50:21;;;;;;;1.67;1.00;;;21.90;99.90;;;;;;5035909;28;20291;-73
2023/07/16 01:52:51;;;;;;;2.03;1.02;;;21.90;99.90;;;;;;5037552;28;20264;-77
2023/07/16 01:55:17;;;;;;;3.78;1.30;;;21.80;99.90;;;;;;5036618;28;20251;-80
2023/07/16 01:57:45;;;;;;;1.92;1.20;;;21.80;99.90;;;;;;5029124;28;20205;-80
2023/07/16 02:00:11;;;;;;;1.23;1.00;;;21.80;99.90;;;;;;5033119;28;20174;-77
2023/07/16 02:02:37;;;;;;;1.73;1.10;;;21.80;99.90;;;;;;5038314;28;20184;-80
2023/07/16 02:05:03;;;;;;;3.20;1.00;;;21.70;99.90;;;;;;5037660;28;20171;-74
2023/07/16 02:07:29;;;;;;;2.10;1.08;;;21.70;99.90;;;;;;5037779;28;20488;-80
2023/07/16 02:09:54;;;;;;;2.80;1.27;;;21.70;99.90;;;;;;5037936;28;20212;-75
2023/07/16 02:12:20;;;;;;;2.92;1.27;;;21.60;99.90;;;;;;5037467;28;20203;-80
2023/07/16 02:14:50;;;;;;;2.85;1.30;;;21.60;99.90;;;;;;5037922;28;20181;-77
2023/07/16 02:17:18;;;;;;;2.35;1.05;;;21.60;99.90;;;;;;5037690;28;20264;-78
2023/07/16 02:19:44;;;;;;;3.00;1.30;;;21.60;99.90;;;;;;5037160;28;20220;-80
2023/07/16 02:22:09;;;;;;;1.80;1.10;;;21.50;99.90;;;;;;5034521;28;20231;-77
2023/07/16 02:24:35;;;;;;;2.35;1.10;;;21.50;99.90;;;;;;5037607;28;20210;-79
2023/07/16 02:27:04;;;;;;;1.35;0.90;;;21.50;99.90;;;;;;5037800;28;20205;-79
2023/07/16 02:29:33;;;;;;;4.85;1.10;;;21.50;99.90;;;;;;5041157;28;20203;-78
2023/07/16 02:31:59;;;;;;;2.30;1.10;;;21.40;99.90;;;;;;5037823;28;20266;-74
2023/07/16 02:34:25;;;;;;;1.77;1.13;;;21.40;99.90;;;;;;5037213;28;20173;-79
2023/07/16 02:36:53;;;;;;;2.75;1.20;;;21.40;99.90;;;;;;5035592;28;20372;-75
2023/07/16 02:39:18;;;;;;;1.98;1.10;;;21.40;99.90;;;;;;5042636;28;20295;-77
2023/07/16 02:41:46;;;;;;;1.85;1.13;;;21.30;99.90;;;;;;5032575;28;20273;-78
2023/07/16 02:44:14;;;;;;;4.38;1.65;;;21.30;99.90;;;;;;5035366;28;20177;-79
2023/07/16 02:46:39;;;;;;;1.83;1.20;;;21.30;99.90;;;;;;5036883;28;20208;-79
2023/07/16 02:49:05;;;;;;;2.15;1.05;;;21.20;99.90;;;;;;5037021;28;20193;-79
2023/07/16 02:51:33;;;;;;;4.38;1.27;;;21.20;99.90;;;;;;5033330;28;20217;-78
2023/07/16 02:53:58;;;;;;;3.10;1.17;;;21.20;99.90;;;;;;5037043;28;20197;-72
2023/07/16 02:56:24;;;;;;;2.72;1.25;;;21.20;99.90;;;;;;5031513;28;20188;-79
2023/07/16 02:58:52;;;;;;;2.67;1.23;;;21.10;99.90;;;;;;5036940;28;20256;-78
2023/07/16 03:01:17;;;;;;;2.70;1.45;;;21.10;99.90;;;;;;5037316;28;20192;-80
2023/07/16 03:03:43;;;;;;;2.50;1.58;;;21.10;99.90;;;;;;5033853;28;20178;-80
2023/07/16 03:06:08;;;;;;;2.22;1.38;;;21.10;99.90;;;;;;5036696;28;20174;-74
2023/07/16 03:08:37;;;;;;;2.88;1.33;;;21.00;99.90;;;;;;5036745;28;20245;-79
2023/07/16 03:11:05;;;;;;;3.08;1.30;;;21.00;99.90;;;;;;5037175;28;20183;-78
2023/07/16 03:13:33;;;;;;;2.22;1.30;;;21.00;99.90;;;;;;5037087;28;20177;-80
2023/07/16 03:15:58;;;;;;;2.42;1.20;;;21.00;99.90;;;;;;5037170;28;20512;-77
2023/07/16 03:18:29;;;;;;;1.48;1.15;;;21.00;99.90;;;;;;5036562;28;20275;-75
2023/07/16 03:20:54;;;;;;;2.00;1.10;;;20.90;99.90;;;;;;5033786;28;20169;-81
2023/07/16 03:23:20;;;;;;;3.40;1.50;;;20.90;99.90;;;;;;5036546;28;20199;-79
2023/07/16 03:25:45;;;;;;;4.03;1.25;;;20.90;99.90;;;;;;5033893;28;20173;-79
2023/07/16 03:28:11;;;;;;;2.38;1.15;;;20.90;99.90;;;;;;5037584;28;20227;-79
2023/07/16 03:30:37;;;;;;;2.88;1.30;;;20.90;99.90;;;;;;5037731;28;20186;-77
2023/07/16 03:33:04;;;;;;;2.20;1.10;;;20.80;99.90;;;;;;5026744;28;20230;-80
2023/07/16 03:35:29;;;;;;;1.65;1.20;;;20.80;99.90;;;;;;5041314;28;20173;-79
2023/07/16 03:37:58;;;;;;;2.80;0.93;;;20.80;99.90;;;;;;5038369;28;20207;-80
2023/07/16 03:40:26;;;;;;;2.45;1.00;;;20.80;99.90;;;;;;5034416;28;20176;-81
2023/07/16 03:42:52;;;;;;;2.65;1.15;;;20.80;99.90;;;;;;5041162;28;20173;-78
2023/07/16 03:45:18;;;;;;;4.10;1.20;;;20.70;99.90;;;;;;5038520;28;20231;-79
2023/07/16 03:47:43;;;;;;;2.17;1.30;;;20.70;99.90;;;;;;5037531;28;20181;-78
2023/07/16 03:50:12;;;;;;;2.20;1.10;;;20.70;99.90;;;;;;5054793;28;20193;-80
2023/07/16 03:52:37;;;;;;;1.30;0.95;;;20.60;99.90;;;;;;5040691;28;20202;-81
2023/07/16 03:55:10;;;;;;;1.77;1.10;;;20.60;99.90;;;;;;5039614;28;20189;-78
2023/07/16 03:57:38;;;;;;;1.40;1.02;;;20.60;99.90;;;;;;5030821;28;20260;-79
2023/07/16 04:00:09;;;;;;;2.22;1.13;;;20.60;99.90;;;;;;5034001;28;20204;-76
2023/07/16 04:02:39;;;;;;;2.78;1.15;;;20.50;99.90;;;;;;5020968;28;20205;-78
2023/07/16 04:05:05;;;;;;;3.67;1.33;;;20.50;99.90;;;;;;5035930;28;20170;-79
2023/07/16 04:07:33;;;;;;;4.32;1.15;;;20.50;99.90;;;;;;5038609;28;20232;-79
2023/07/16 04:09:59;;;;;;;2.90;1.17;;;20.40;99.90;;;;;;5039582;28;20181;-79
2023/07/16 04:12:24;;;;;;;2.30;1.40;;;20.40;99.90;;;;;;5038591;28;20189;-80
2023/07/16 04:14:55;;;;;;;2.30;1.27;;;20.40;99.90;;;;;;5036122;28;20202;-78
2023/07/16 04:17:23;;;;;;;2.28;1.10;;;20.40;99.90;;;;;;5034086;28;20181;-78
2023/07/16 04:19:49;;;;;;;2.20;1.00;;;20.40;99.90;;;;;;5032868;28;20194;-77
2023/07/16 04:22:19;;;;;;;2.85;1.52;;;20.40;99.90;;;;;;5025982;28;20281;-76
2023/07/16 04:24:47;;;;;;;2.45;1.25;;;20.30;99.90;;;;;;5039734;28;20185;-79
2023/07/16 04:27:13;;;;;;;3.00;1.40;;;20.30;99.90;;;;;;5040038;28;20170;-78
2023/07/16 04:29:43;;;;;;;4.20;1.45;;;20.30;99.90;;;;;;5040117;28;20197;-75
2023/07/16 04:32:09;;;;;;;3.33;1.30;;;20.30;99.90;;;;;;5038957;28;20201;-78
2023/07/16 04:34:34;;;;;;;2.42;1.52;;;20.30;99.90;;;;;;5039816;28;20205;-78
2023/07/16 04:37:00;;;;;;;1.63;1.15;;;20.30;99.90;;;;;;5040165;28;20181;-80
2023/07/16 04:39:28;;;;;;;5.57;1.40;;;20.30;99.90;;;;;;5035685;28;20221;-76
2023/07/16 04:41:53;;;;;;;3.03;1.40;;;20.30;99.90;;;;;;5034073;28;20188;-77
2023/07/16 04:44:21;;;;;;;2.45;1.30;;;20.30;99.90;;;;;;5039927;28;20165;-80
2023/07/16 04:46:49;;;;;;;2.85;1.10;;;20.30;99.90;;;;;;5057335;28;20169;-79
2023/07/16 04:49:17;;;;;;;1.58;1.38;;;20.30;99.90;;;;;;5036188;28;20198;-75
2023/07/16 04:51:43;;;;;;;4.25;1.40;;;20.30;99.90;;;;;;5039288;28;20272;-79
2023/07/16 04:54:09;;;;;;;3.30;1.40;;;20.30;99.90;;;;;;5039691;28;20257;-79
2023/07/16 04:56:39;;;;;;;3.35;1.48;;;20.30;99.90;;;;;;5039173;28;20197;-77
2023/07/16 04:59:07;;;;;;;2.80;1.20;;;20.30;99.90;;;;;;5039519;28;20258;-78
2023/07/16 05:01:32;;;;;;;4.15;1.60;;;20.30;99.90;;;;;;5039825;28;20216;-81
2023/07/16 05:04:00;;;;;;;4.45;1.40;;;20.30;99.90;;;;;;5039702;28;20217;-76
2023/07/16 05:06:26;;;;;;;2.28;1.13;;;20.30;99.90;;;;;;5039495;28;20378;-80
2023/07/16 05:08:52;;;;;;;2.05;1.50;;;20.30;99.90;;;;;;5038872;28;20189;-73
2023/07/16 05:11:19;;;;;;;1.73;1.27;;;20.30;99.90;;;;;;5051941;28;20198;-79
2023/07/16 05:13:45;;;;;;;4.65;1.70;;;20.40;99.90;;;;;;5043552;28;20220;-79
2023/07/16 05:16:11;;;;;;;2.13;1.30;;;20.40;99.90;;;;;;5035818;28;20209;-78
2023/07/16 05:18:36;;;;;;;4.22;1.40;;;20.40;99.90;;;;;;5028496;28;20369;-81
2023/07/16 05:21:02;;;;;;;2.60;1.48;;;20.40;99.90;;;;;;5039835;28;20227;-79
2023/07/16 05:23:27;;;;;;;2.00;1.30;;;20.40;99.90;;;;;;5029904;28;20177;-78
2023/07/16 05:25:53;;;;;;;4.53;1.90;;;20.40;99.90;;;;;;5036729;28;20239;-76
2023/07/16 05:28:21;;;;;;;2.85;1.40;;;20.50;99.90;;;;;;5039095;28;20189;-81
2023/07/16 05:30:47;;;;;;;2.65;1.23;;;20.50;99.90;;;;;;5055230;28;20205;-77
2023/07/16 05:33:15;;;;;;;2.75;1.65;;;20.50;99.90;;;;;;5029456;28;20192;-79
2023/07/16 05:35:40;;;;;;;4.20;1.80;;;20.50;99.90;;;;;;5038981;28;20269;-81
2023/07/16 05:38:07;;;;;;;3.63;1.75;;;20.50;99.90;;;;;;5038468;28;20288;-75
2023/07/16 05:40:34;;;;;;;3.65;1.70;;;20.50;99.90;;;;;;5022204;28;20177;-81
2023/07/16 05:43:00;;;;;;;4.40;1.90;;;20.50;99.90;;;;;;5038094;28;20174;-80
2023/07/16 05:45:31;;;;;;;4.13;1.98;;;20.60;99.90;;;;;;5037946;28;20208;-79
2023/07/16 05:47:56;;;;;;;4.85;1.83;;;20.60;99.90;;;;;;5036894;28;20181;-75
2023/07/16 05:50:22;;;;;;;4.65;2.38;;;20.60;99.90;;;;;;5038168;28;20363;-78
2023/07/16 05:52:48;;;;;;;5.38;1.92;;;20.60;99.90;;;;;;5050676;28;20178;-77
2023/07/16 05:55:14;;;;;;;5.15;2.00;;;20.60;99.90;;;;;;5038466;28;20215;-79
2023/07/16 05:57:40;;;;;;;4.80;2.10;;;20.60;99.90;;;;;;5036627;28;20205;-79
2023/07/16 06:00:06;;;;;;;3.63;2.05;;;20.60;99.90;;;;;;5037930;28;20243;-79
2023/07/16 06:02:34;;;;;;;4.95;2.30;;;20.60;99.90;;;;;;5038235;28;20268;-81
2023/07/16 06:05:02;;;;;;;3.97;2.50;;;20.60;99.90;;;;;;5038538;28;20223;-73
2023/07/16 06:07:32;;;;;;;3.40;2.30;;;20.70;99.80;;;;;;5038334;28;20235;-79
2023/07/16 06:10:00;;;;;;;4.03;2.25;;;20.60;99.60;;;;;;5038259;28;20169;-80
2023/07/16 06:12:26;;;;;;;3.80;2.30;;;20.70;99.60;;;;;;5021592;28;20181;-77
2023/07/16 06:14:54;;;;;;;5.60;2.85;;;20.70;99.50;;;;;;5035082;28;20265;-77
2023/07/16 06:17:20;;;;;;;4.97;2.40;;;20.70;99.40;;;;;;5037782;28;20197;-81
2023/07/16 06:19:49;;;;;;;4.63;2.50;;;20.70;99.00;;;;;;5037755;28;20262;-79
2023/07/16 06:22:17;;;;;;;4.38;2.25;;;20.70;98.90;;;;;;5037927;28;20170;-79
2023/07/16 06:24:43;;;;;;;6.75;2.40;;;20.80;99.00;;;;;;5026497;28;20194;-80
2023/07/16 06:27:08;;;;;;;5.30;2.47;;;20.70;98.80;;;;;;5034962;28;20174;-79
2023/07/16 06:29:34;;;;;;;3.63;2.28;;;20.70;98.70;;;;;;5037475;28;20288;-73
2023/07/16 06:32:02;;;;;;;7.05;2.50;;;20.80;98.50;;;;;;5037251;28;20263;-77
2023/07/16 06:34:28;;;;;;;6.72;2.60;;;20.80;98.40;;;;;;5038075;28;20187;-75
2023/07/16 06:36:54;;;;;;;5.05;2.45;;;20.80;98.40;;;;;;5038068;28;20280;-79
2023/07/16 06:39:22;;;;;;;6.10;2.50;;;20.80;98.50;;;;;;5037384;28;20193;-72
2023/07/16 06:41:48;;;;;;;5.47;2.65;;;20.80;98.50;;;;;;5034377;28;20171;-75
2023/07/16 06:44:13;;;;;;;4.57;2.13;;;20.80;98.40;;;;;;5034785;28;20162;-80
2023/07/16 06:46:39;;;;;;;3.95;2.38;;;20.90;98.50;;;;;;5034394;28;20165;-77
2023/07/16 06:49:06;;;;;;;3.78;2.47;;;21.00;98.50;;;;;;5076349;22;20228;-76
2023/07/16 06:51:34;;;;;;;2.95;2.38;;;21.00;98.10;;;;;;5037352;28;20169;-78
2023/07/16 06:54:00;;;;;;;5.50;2.72;;;21.00;97.80;;;;;;5040288;28;20235;-79
2023/07/16 06:56:26;;;;;;;6.57;3.25;;;21.00;97.60;;;;;;5038911;28;20170;-81
2023/07/16 06:58:51;;;;;;;5.07;2.78;;;21.10;97.30;;;;;;5034533;28;20243;-79
2023/07/16 07:01:17;;;;;;;5.00;2.83;;;21.10;97.30;;;;;;5027697;28;20260;-67
2023/07/16 07:03:42;;;;;;;3.63;2.70;;;21.10;97.10;;;;;;5033812;28;20189;-76
2023/07/16 07:06:10;;;;;;;7.47;2.97;;;21.10;97.20;;;;;;5032406;28;20181;-76
2023/07/16 07:08:38;;;;;;;3.72;2.70;;;21.20;96.90;;;;;;5039371;28;20200;-73
2023/07/16 07:11:07;;;;;;;4.80;2.78;;;21.20;96.50;;;;;;5036470;28;20201;-75
2023/07/16 07:13:32;;;;;;;7.43;3.35;;;21.20;96.80;;;;;;5034044;28;20177;-70
2023/07/16 07:16:00;;;;;;;4.95;3.10;;;21.20;95.80;;;;;;5035606;28;20475;-72
2023/07/16 07:18:26;;;;;;;7.03;3.10;;;21.30;95.50;;;;;;5043953;28;20190;-74
2023/07/16 07:20:54;;;;;;;4.63;3.15;;;21.30;95.30;;;;;;5031466;28;20181;-73
2023/07/16 07:23:21;;;;;;;5.57;2.88;;;21.30;95.20;;;;;;5037338;28;20185;-72
2023/07/16 07:25:53;;;;;;;4.82;3.13;;;21.30;95.40;;;;;;5052836;28;20177;-74
2023/07/16 07:28:19;;;;;;;4.55;2.60;;;21.30;95.20;;;;;;5029017;28;20169;-75
2023/07/16 07:30:48;;;;;;;5.57;3.38;;;21.40;95.20;;;;;;5027626;28;20185;-74
2023/07/16 07:33:13;;;;;;;4.47;3.35;;;21.40;94.70;;;;;;5036148;28;20236;-77
2023/07/16 07:35:39;;;;;;;6.22;3.22;;;21.50;94.40;;;;;;5053911;28;20204;-76
2023/07/16 07:38:05;;;;;;;4.60;3.03;;;21.50;94.50;;;;;;5036925;28;20193;-78
2023/07/16 07:40:35;;;;;;;5.80;3.65;;;21.50;94.50;;;;;;5037565;28;20184;-74
2023/07/16 07:43:00;;;;;;;7.20;3.30;;;21.60;93.50;;;;;;5032690;28;20201;-75
2023/07/16 07:45:28;;;;;;;5.70;3.63;;;21.60;93.00;;;;;;5036016;28;20169;-74
2023/07/16 07:47:54;;;;;;;4.93;3.20;;;21.60;93.00;;;;;;5038303;28;20177;-77
2023/07/16 07:50:20;;;;;;;6.22;4.07;;;21.60;93.10;;;;;;5042446;28;20256;-75
2023/07/16 07:52:45;;;;;;;4.00;3.10;;;21.70;93.20;;;;;;5036012;28;20228;-73
2023/07/16 07:55:11;;;;;;;5.28;3.30;;;21.70;92.90;;;;;;5036813;28;20200;-76
2023/07/16 07:57:39;;;;;;;5.40;3.53;;;21.70;92.60;;;;;;5035426;28;20193;-73
2023/07/16 08:00:06;;;;;;;4.43;3.00;;;21.80;92.20;;;;;;5036263;28;20194;-74
2023/07/16 08:02:31;;;;;;;5.18;3.30;;;21.80;92.20;;;;;;5031767;28;20174;-74
2023/07/16 08:04:59;;;;;;;5.78;3.58;;;21.90;92.20;;;;;;5034536;28;20205;-72
2023/07/16 08:07:26;;;;;;;6.10;3.03;;;21.90;92.00;;;;;;5021059;28;20166;-74
2023/07/16 08:09:51;;;;;;;3.80;2.80;;;22.00;91.70;;;;;;5030605;28;20185;-75
2023/07/16 08:12:19;;;;;;;5.18;3.08;;;22.00;91.80;;;;;;5033260;28;20353;-71
2023/07/16 08:14:47;;;;;;;5.38;3.60;;;22.10;91.70;;;;;;5034136;28;20354;-73
2023/07/16 08:17:12;;;;;;;4.65;3.30;;;22.10;91.40;;;;;;5037136;28;20289;-73
2023/07/16 08:19:38;;;;;;;6.10;3.20;;;22.20;91.30;;;;;;5031939;28;20222;-74
2023/07/16 08:22:07;;;;;;;5.40;3.33;;;22.20;91.10;;;;;;5040448;28;20193;-70
2023/07/16 08:24:32;;;;;;;5.85;3.28;;;22.30;90.90;;;;;;5056323;28;20280;-73
2023/07/16 08:26:58;;;;;;;5.10;3.55;;;22.30;90.70;;;;;;5039875;28;20197;-71
2023/07/16 08:29:24;;;;;;;5.25;3.30;;;22.40;90.70;;;;;;5040380;28;20189;-73
2023/07/16 08:31:51;;;;;;;5.00;3.22;;;22.40;90.70;;;;;;5041503;28;20242;-74
2023/07/16 08:34:18;;;;;;;4.47;3.30;;;22.40;90.50;;;;;;5055619;28;20235;-73
2023/07/16 08:36:44;;;;;;;6.28;3.38;;;22.40;90.30;;;;;;5038385;28;20177;-77
2023/07/16 08:39:12;;;;;;;6.63;3.67;;;22.50;90.10;;;;;;5034059;28;20196;-75
2023/07/16 08:41:41;;;;;;;5.18;3.60;;;22.50;89.90;;;;;;5039608;28;20204;-74
2023/07/16 08:44:08;;;;;;;4.57;3.30;;;22.50;90.00;;;;;;5039949;28;20176;-71
2023/07/16 08:46:34;;;;;;;5.10;3.30;;;22.50;90.20;;;;;;5044237;28;20170;-74
2023/07/16 08:49:02;;;;;;;4.30;3.38;;;22.60;89.10;;;;;;5055370;28;20204;-74
2023/07/16 08:51:31;;;;;;;4.57;3.22;;;22.60;88.60;;;;;;5039845;28;20177;-76
2023/07/16 08:53:59;;;;;;;5.45;3.03;;;22.60;88.00;;;;;;5033250;28;20181;-73
2023/07/16 08:56:25;;;;;;;3.47;2.53;;;22.70;88.10;;;;;;5039291;28;20177;-72
2023/07/16 08:58:55;;;;;;;3.30;2.58;;;22.70;87.90;;;;;;5039268;28;20360;-72
2023/07/16 09:01:21;;;;;;;5.68;3.08;;;22.80;87.60;;;;;;5032934;28;20216;-76
2023/07/16 09:03:49;;;;;;;5.88;2.75;;;22.80;87.30;;;;;;5039487;28;20174;-73
2023/07/16 09:06:15;;;;;;;3.38;2.40;;;22.90;87.00;;;;;;5038316;28;20318;-68
2023/07/16 09:08:42;;;;;;;4.20;2.90;;;22.90;87.00;;;;;;5019920;28;20228;-71
2023/07/16 09:11:13;;;;;;;5.30;2.70;;;23.00;85.80;;;;;;5043124;28;20193;-74
2023/07/16 09:13:44;;;;;;;4.53;2.60;;;23.00;85.30;;;;;;5035696;28;20166;-70
2023/07/16 09:16:12;;;;;;;4.70;2.78;;;23.10;85.80;;;;;;5052022;28;20205;-72
2023/07/16 09:18:40;;;;;;;4.28;2.80;;;23.10;86.00;;;;;;5038510;28;20208;-73
2023/07/16 09:21:06;;;;;;;3.10;2.05;;;23.10;86.10;;;;;;5038272;28;20197;-73
2023/07/16 09:23:33;;;;;;;3.97;2.30;;;23.20;87.10;;;;;;5039402;28;20172;-65
2023/07/16 09:25:59;;;;;;;5.65;2.50;;;23.20;85.40;;;;;;5029996;28;20220;-76
2023/07/16 09:28:25;;;;;;;3.30;2.30;;;23.30;85.40;;;;;;5041391;28;20225;-72
2023/07/16 09:30:53;;;;;;;4.95;2.63;;;23.30;85.10;;;;;;5042718;28;20181;-74
2023/07/16 09:33:21;;;;;;;3.90;2.05;;;23.40;83.90;;;;;;5038649;28;20234;-74
2023/07/16 09:35:54;;;;;;;5.72;2.30;;;23.40;84.00;;;;;;5041050;28;20366;-73
2023/07/16 09:38:24;;;;;;;3.38;2.20;;;23.40;83.50;;;;;;5038892;28;20221;-73
2023/07/16 09:40:55;;;;;;;2.65;2.20;;;23.50;83.90;;;;;;5025766;28;20201;-75
2023/07/16 09:43:21;;;;;;;4.95;2.30;;;23.60;83.80;;;;;;5038980;28;20177;-72
2023/07/16 09:45:49;;;;;;;3.97;2.33;;;23.60;83.30;;;;;;5038752;28;20260;-74
2023/07/16 09:48:17;;;;;;;2.60;1.98;;;23.70;83.60;;;;;;5035304;28;20202;-73
2023/07/16 09:50:52;;;;;;;3.40;2.08;;;23.70;82.10;;;;;;5026748;28;20181;-71
2023/07/16 09:53:20;;;;;;;3.42;2.25;;;23.80;82.60;;;;;;5036728;28;20192;-75
2023/07/16 09:55:47;;;;;;;4.80;2.20;;;23.90;81.70;;;;;;5032438;28;20211;-69
2023/07/16 09:58:19;;;;;;;2.88;2.08;;;24.00;81.70;;;;;;5022432;28;20193;-73
2023/07/16 10:00:48;;;;;;;3.95;2.50;;;24.10;81.60;;;;;;5038300;28;20316;-74
2023/07/16 10:03:17;;;;;;;3.15;1.95;;;24.10;81.60;;;;;;5038322;28;20327;-73
2023/07/16 10:05:43;;;;;;;2.72;1.90;;;24.20;82.20;;;;;;5038223;28;20263;-70
2023/07/16 10:08:17;;;;;;;2.85;2.20;;;24.30;80.80;;;;;;5037891;28;20232;-71
2023/07/16 10:10:54;;;;;;;4.43;2.03;;;24.40;80.00;;;;;;5039567;28;20212;-74
2023/07/16 10:13:22;;;;;;;2.60;2.10;;;24.50;80.60;;;;;;5038225;28;20188;-71
2023/07/16 10:15:56;;;;;;;3.47;2.40;;;24.50;79.70;;;;;;5037934;28;20208;-72
2023/07/16 10:18:38;;;;;;;3.15;2.17;;;24.60;78.50;;;;;;5037764;28;20280;-74
2023/07/16 10:21:08;;;;;;;6.70;2.30;;;24.60;77.90;;;;;;5037200;28;20224;-71
2023/07/16 10:23:39;;;;;;;3.08;1.90;;;24.70;78.80;;;;;;5033147;28;20488;-72
2023/07/16 10:26:06;;;;;;;3.25;2.30;;;24.70;79.00;;;;;;5030077;28;20185;-72
2023/07/16 10:28:33;;;;;;;3.42;2.25;;;24.80;78.70;;;;;;5046058;28;20211;-75
2023/07/16 10:30:58;;;;;;;3.80;2.40;;;24.90;78.50;;;;;;5034363;28;20177;-70
2023/07/16 10:33:26;;;;;;;4.03;2.10;;;25.00;78.10;;;;;;5037688;28;20203;-72
2023/07/16 10:35:56;;;;;;;3.80;2.50;;;25.10;77.90;;;;;;5037896;28;20200;-75
2023/07/16 10:38:21;;;;;;;2.47;2.03;;;25.20;77.30;;;;;;5039176;28;20192;-74
2023/07/16 10:40:47;;;;;;;3.20;2.17;;;25.30;76.80;;;;;;5037676;28;20188;-72
2023/07/16 10:43:13;;;;;;;4.53;2.20;;;25.50;76.20;;;;;;5048023;28;20162;-75
2023/07/16 10:45:41;;;;;;;3.30;2.08;;;25.60;76.00;;;;;;5025281;28;20239;-74
2023/07/16 10:48:07;;;;;;;4.30;2.03;;;25.80;75.50;;;;;;5021247;28;20201;-76
2023/07/16 10:50:36;;;;;;;4.22;2.30;;;25.90;75.00;;;;;;5037577;28;20184;-74
2023/07/16 10:53:02;;;;;;;4.03;2.10;;;26.00;74.40;;;;;;5027076;28;20165;-73
2023/07/16 10:55:31;;;;;;;2.83;1.92;;;26.00;75.40;;;;;;5037451;28;20192;-72
2023/07/16 10:58:09;;;;;;;2.85;2.17;;;26.10;71.70;;;;;;5045533;28;20256;-72
2023/07/16 11:00:42;;;;;;;4.15;2.33;;;26.10;70.60;;;;;;5036820;28;20169;-75
2023/07/16 11:03:09;;;;;;;3.47;2.03;;;26.10;70.00;;;;;;5033590;28;20440;-73
2023/07/16 11:05:35;;;;;;;3.78;2.22;;;26.10;69.70;;;;;;5028572;28;20174;-70
2023/07/16 11:08:01;;;;;;;3.47;2.30;;;26.10;69.80;;;;;;5036677;28;20203;-71
2023/07/16 11:10:30;;;;;;;3.58;2.20;;;26.00;70.00;;;;;;5037565;28;20174;-71
2023/07/16 11:12:58;;;;;;;3.10;2.10;;;26.10;70.70;;;;;;5025546;28;20224;-73
2023/07/16 11:15:36;;;;;;;3.60;2.40;;;26.10;70.50;;;;;;5037059;28;20212;-73
2023/07/16 11:18:02;;;;;;;2.83;2.10;;;26.10;68.70;;;;;;5036122;28;20187;-73
2023/07/16 11:20:29;;;;;;;3.15;2.10;;;26.10;69.70;;;;;;5037113;28;20184;-77
2023/07/16 11:23:01;;;;;;;3.53;2.38;;;26.20;69.70;;;;;;5061007;28;20240;-75
2023/07/16 11:25:27;;;;;;;2.72;1.90;;;26.30;69.60;;;;;;5037354;28;20154;-73
2023/07/16 11:27:57;;;;;;;3.00;2.28;;;26.30;69.40;;;;;;5033561;28;20270;-72
2023/07/16 11:30:27;;;;;;;3.65;2.30;;;26.40;68.90;;;;;;5029013;28;20176;-73
2023/07/16 11:32:58;;;;;;;3.90;2.67;;;26.40;68.10;;;;;;5033507;28;20170;-72
2023/07/16 11:35:28;;;;;;;2.50;1.90;;;26.40;67.80;;;;;;5043855;28;20193;-75
2023/07/16 11:37:54;;;;;;;5.53;2.20;;;26.40;68.40;;;;;;5037000;28;20300;-74
2023/07/16 11:40:23;;;;;;;2.80;2.20;;;26.40;68.00;;;;;;5037255;28;20205;-75
2023/07/16 11:42:51;;;;;;;2.42;1.95;;;26.60;67.20;;;;;;5032677;28;20206;-72
2023/07/16 11:45:19;;;;;;;3.15;2.05;;;26.60;66.30;;;;;;5033805;28;20193;-74
2023/07/16 11:47:47;;;;;;;2.63;1.83;;;26.60;66.40;;;;;;5036973;28;20197;-69
2023/07/16 11:50:13;;;;;;;3.38;2.03;;;26.50;66.20;;;;;;5038424;28;20189;-75
2023/07/16 11:52:39;;;;;;;3.80;2.13;;;26.50;65.80;;;;;;5039883;28;20199;-69
2023/07/16 11:55:08;;;;;;;3.17;2.03;;;26.50;67.30;;;;;;5040742;28;20225;-74
2023/07/16 11:57:35;;;;;;;3.65;1.88;;;26.60;66.70;;;;;;5040889;28;20188;-73
2023/07/16 12:00:00;;;;;;;2.58;1.75;;;26.70;65.10;;;;;;5037543;28;20219;-74
2023/07/16 12:02:31;;;;;;;3.33;2.20;;;26.80;65.00;;;;;;5043264;28;20181;-72
2023/07/16 12:04:57;;;;;;;3.58;2.15;;;26.80;63.90;;;;;;5040281;28;20196;-76
2023/07/16 12:07:37;;;;;;;4.05;2.20;;;26.80;63.50;;;;;;5036636;28;20170;-70
2023/07/16 12:10:07;;;;;;;3.60;2.30;;;26.80;62.70;;;;;;5051343;28;20255;-74
2023/07/16 12:12:37;;;;;;;3.42;1.90;;;26.80;63.50;;;;;;5036968;28;20170;-72
2023/07/16 12:15:06;;;;;;;3.47;2.40;;;26.70;63.70;;;;;;5033613;28;20200;-75
2023/07/16 12:17:32;;;;;;;4.47;1.95;;;26.70;63.50;;;;;;5038800;28;20216;-68
2023/07/16 12:19:57;;;;;;;3.05;2.08;;;26.70;63.50;;;;;;5041873;28;20291;-73
2023/07/16 12:22:24;;;;;;;3.10;1.83;;;26.70;63.40;;;;;;5040243;28;20257;-73
2023/07/16 12:24:52;;;;;;;2.65;1.92;;;26.70;63.10;;;;;;5030797;28;20191;-74
2023/07/16 12:27:18;;;;;;;3.15;1.92;;;26.60;62.90;;;;;;5034228;28;20182;-75
2023/07/16 12:29:44;;;;;;;2.90;2.13;;;26.70;63.50;;;;;;5031891;28;20178;-68
2023/07/16 12:32:12;;;;;;;5.90;1.98;;;26.70;63.50;;;;;;5034061;28;20184;-74
2023/07/16 12:34:38;;;;;;;2.45;1.90;;;26.80;63.60;;;;;;5037089;28;20174;-69
2023/07/16 12:37:06;;;;;;;3.50;2.15;;;26.90;63.80;;;;;;5033880;28;20179;-68
2023/07/16 12:39:34;;;;;;;4.80;2.08;;;27.00;63.60;;;;;;5039417;28;20203;-70
2023/07/16 12:42:00;;;;;;;2.33;1.98;;;27.00;62.70;;;;;;5038551;28;20170;-68
2023/07/16 12:44:28;;;;;;;3.08;2.15;;;27.00;62.30;;;;;;5027020;28;20174;-65
2023/07/16 12:46:56;;;;;;;3.15;2.03;;;26.90;61.70;;;;;;5038231;28;20175;-67
2023/07/16 12:49:26;;;;;;;2.88;2.30;;;26.90;62.00;;;;;;5033670;28;20305;-69